Dades meteomassalio
Diari Summary for Marc 3, 2018 Units:  Metric    English   Both
« Previous Day
Next Day »
Diari Semanal Mensual Anual Personalitzat
  Maxima: Minima: Mijana:
Temperatura: -17.8 °C -15.6 °C -11.7 °C
Rosada: -17.8 °C -18.3 °C -15.6 °C
Humitat: Humidity % 40 % 63 %
Velocitat del vent: 0 km/h 0 km/h 21.9 km/h
Racha vent: 0 km/h - -
Vent:- - WNW
Pressio: 0 hPa 33765.2 hPa -
Pluja: 0 mm    
Historical Graphs
 
 
Tabular Data for Marc 3, 2018
Time Temperature Dew Point Pressure Wind Wind Speed Wind Gust Humidity Rainfall Rate (Hourly) solar Conditions
-17.8 °C -17.8 °C 0 hPa Calm     Humidity % 0 mm SolarRadiationWatts/m^2 W/m2 Conditions
00:03 -14.1 °C -15.2 °C 33822.8 hPa Calm     87 % 0 mm 0.0 W/m2 RA
00:08 -14.1 °C -15.1 °C 33799.1 hPa Calm     88 % 0 mm 0.0 W/m2 CLR
00:13 -14.1 °C -15.1 °C 33788.9 hPa Calm     88 % 0 mm 0.0 W/m2 CLR
00:18 -14.1 °C -15 °C 33775.4 hPa Calm     89 % 0 mm 0.0 W/m2 CLR
00:23 -14.1 °C -15 °C 33765.2 hPa Calm     89 % 0 mm 0.0 W/m2 CLR
00:28 -14.1 °C -15 °C 33775.4 hPa Calm     89 % 0 mm 0.0 W/m2 CLR
00:33 -14.1 °C -14.9 °C 33775.4 hPa Calm     90 % 0 mm 0.0 W/m2 CLR
00:38 -14.1 °C -15 °C 33775.4 hPa Calm     89 % 0 mm 0.0 W/m2 CLR
00:43 -14.1 °C -15.1 °C 33775.4 hPa SW 3.1 km/h 3.1 km/h 88 % 25.4 mm 0.0 W/m2 CLR
00:48 -14.1 °C -15.1 °C 33788.9 hPa WNW 11.9 km/h 11.9 km/h 88 % 20.32 mm 0.0 W/m2 CLR
00:53 -14.1 °C -15.1 °C 33788.9 hPa Calm     88 % 12.7 mm 0.0 W/m2 CLR
00:58 -14.1 °C -15.1 °C 33799.1 hPa WNW 3.1 km/h   88 % 7.62 mm 0.0 W/m2 CLR
01:03 -14.4 °C -15.5 °C 33788.9 hPa Calm     87 % 0 mm 0.0 W/m2 CLR
01:08 -14.4 °C -15.6 °C 33788.9 hPa Calm     86 % 0 mm 0.0 W/m2 CLR
01:13 -14.4 °C -15.5 °C 33788.9 hPa West 11.9 km/h 11.9 km/h 87 % 0 mm 0.0 W/m2 CLR
01:18 -14.4 °C -15.3 °C 33799.1 hPa WNW 9 km/h 9 km/h 89 % 0 mm 0.0 W/m2 CLR
01:23 -14.4 °C -15.2 °C 33799.1 hPa WNW 9 km/h 9 km/h 90 % 0 mm 0.0 W/m2 CLR
01:28 -14.4 °C -15.3 °C 33799.1 hPa Calm     89 % 0 mm 0.0 W/m2 CLR
01:33 -14.4 °C -15.3 °C 33799.1 hPa Calm     89 % 0 mm 0.0 W/m2 CLR
01:38 -14.4 °C -15.3 °C 33799.1 hPa WNW 5.1 km/h 5.1 km/h 89 % 0 mm 0.0 W/m2 CLR
01:43 -14.4 °C -15.2 °C 33788.9 hPa West 10.3 km/h 10.3 km/h 90 % 0 mm 0.0 W/m2 CLR
01:48 -14.4 °C -15.2 °C 33799.1 hPa West 10.3 km/h 10.3 km/h 90 % 0 mm 0.0 W/m2 CLR
01:53 -14.4 °C -15.1 °C 33799.1 hPa WNW 18.2 km/h 18.2 km/h 91 % 0 mm 0.0 W/m2 CLR
01:58 -14.7 °C -15.5 °C 33799.1 hPa WNW 29.8 km/h 29.8 km/h 90 % 0 mm 0.0 W/m2 CLR
02:03 -14.7 °C -15.8 °C 33799.1 hPa WNW 29.8 km/h 29.8 km/h 87 % 0 mm 0.0 W/m2 CLR
02:08 -15 °C -16.4 °C 33799.1 hPa WNW 26.9 km/h 26.9 km/h 84 % 0 mm 0.0 W/m2 CLR
02:13 -15 °C -16.8 °C 33788.9 hPa NW 23.8 km/h 23.8 km/h 80 % 0 mm 0.0 W/m2 CLR
02:18 -15.3 °C -17.4 °C 33788.9 hPa NW 32.8 km/h 32.8 km/h 76 % 0 mm 0.0 W/m2 CLR
02:23 -15.3 °C -17.8 °C 33788.9 hPa NW 38.8 km/h 38.8 km/h 73 % 0 mm 0.0 W/m2 CLR
02:28 -15.3 °C -17.9 °C 33799.1 hPa NW 29.8 km/h 29.8 km/h 72 % 0 mm 0.0 W/m2 CLR
02:33 -15 °C -17.7 °C 33799.1 hPa NW 32.8 km/h 32.8 km/h 71 % 0 mm 0.0 W/m2 CLR
02:38 -14.4 °C -17.2 °C 33799.1 hPa WNW 29.8 km/h 29.8 km/h 70 % 0 mm 0.0 W/m2 CLR
02:43 -14.4 °C -17.2 °C 33799.1 hPa NW 29.8 km/h 29.8 km/h 70 % 0 mm 0.0 W/m2 CLR
02:48 -14.1 °C -16.9 °C 33799.1 hPa WNW 32.8 km/h 32.8 km/h 70 % 0 mm 0.0 W/m2 CLR
02:53 -13.4 °C -16.4 °C 33799.1 hPa WNW 35.7 km/h 35.7 km/h 69 % 0 mm 0.0 W/m2 CLR
02:58 -13.4 °C -16.4 °C 33788.9 hPa NW 38.8 km/h 38.8 km/h 69 % 0 mm 0.0 W/m2 CLR
03:03 -13.4 °C -16.4 °C 33788.9 hPa WNW 33.6 km/h 33.6 km/h 69 % 0 mm 0.0 W/m2 CLR
03:08 -13.4 °C -16.4 °C 33788.9 hPa NNW 35.7 km/h 35.7 km/h 69 % 0 mm 0.0 W/m2 CLR
03:13 -13.8 °C -16.7 °C 33788.9 hPa NW 35.7 km/h 35.7 km/h 69 % 0 mm 0.0 W/m2 CLR
03:18 -13.4 °C -16.6 °C 33788.9 hPa NNW 32.8 km/h 32.8 km/h 68 % 0 mm 0.0 W/m2 CLR
03:23 -13.4 °C -16.6 °C 33788.9 hPa WNW 23.8 km/h 23.8 km/h 68 % 0 mm 0.0 W/m2 CLR
03:28 -13.4 °C -16.4 °C 33788.9 hPa WNW 29.8 km/h 29.8 km/h 69 % 0 mm 0.0 W/m2 CLR
03:33 -13.2 °C -16 °C 33775.4 hPa WNW 12.9 km/h 12.9 km/h 70 % 0 mm 0.0 W/m2 CLR
03:38 -13.2 °C -15.8 °C 33775.4 hPa West 32.8 km/h 32.8 km/h 72 % 0 mm 0.0 W/m2 CLR
03:43 -13.4 °C -16.2 °C 33775.4 hPa WNW 29.8 km/h 29.8 km/h 71 % 0 mm 0.0 W/m2 CLR
03:48 -13.2 °C -16 °C 33775.4 hPa WNW 26.9 km/h 26.9 km/h 70 % 0 mm 0.0 W/m2 CLR
03:53 -13.4 °C -16.2 °C 33775.4 hPa West 32.8 km/h 32.8 km/h 71 % 0 mm 0.0 W/m2 CLR
03:58 -13.4 °C -16.3 °C 33775.4 hPa WNW 23.8 km/h 23.8 km/h 70 % 0 mm 0.0 W/m2 CLR
04:03 -14.1 °C -17 °C 33775.4 hPa NW 29.8 km/h 29.8 km/h 69 % 0 mm 0.0 W/m2 CLR
04:09 -14.4 °C -17.4 °C 33775.4 hPa WNW 26.9 km/h 26.9 km/h 68 % 0 mm 0.0 W/m2 CLR
04:14 -14.4 °C -17.3 °C 33775.4 hPa Calm     69 % 0 mm 0.0 W/m2 CLR
04:19 -14.7 °C -17.4 °C 33775.4 hPa Calm     71 % 0 mm 0.0 W/m2 CLR
04:24 -15 °C -17.4 °C 33788.9 hPa Calm     73 % 0 mm 0.0 W/m2 CLR
04:29 -15 °C -17.4 °C 33788.9 hPa Calm     74 % 0 mm 0.0 W/m2 CLR
04:34 -15.3 °C -17.6 °C 33799.1 hPa Calm     75 % 0 mm 0.0 W/m2 CLR
04:39 -15.3 °C -17.4 °C 33799.1 hPa Calm     76 % 0 mm 0.0 W/m2 CLR
04:44 -15.3 °C -17.3 °C 33799.1 hPa Calm     78 % 0 mm 0.0 W/m2 CLR
04:49 -15.3 °C -17.3 °C 33799.1 hPa Calm     78 % 0 mm 0.0 W/m2 CLR
04:54 -15.3 °C -17.3 °C 33799.1 hPa Calm     77 % 0 mm 0.0 W/m2 CLR
04:59 -15.6 °C -17.7 °C 33799.1 hPa NW 17.9 km/h 17.9 km/h 76 % 0 mm 0.0 W/m2 CLR
05:04 -15.6 °C -18.2 °C 33799.1 hPa NNW 23.8 km/h 23.8 km/h 72 % 0 mm 0.0 W/m2 CLR
05:09 -15.6 °C -18.3 °C 33799.1 hPa NNW 29.8 km/h 29.8 km/h 71 % 0 mm 0.0 W/m2 CLR
05:14 -15.6 °C -18.3 °C 33809.2 hPa North 26.9 km/h 26.9 km/h 71 % 0 mm 0.0 W/m2 CLR
05:19 -15.3 °C -17.9 °C 33809.2 hPa NNW 26.9 km/h 26.9 km/h 72 % 0 mm 0.0 W/m2 CLR
05:24 -15.3 °C -17.9 °C 33809.2 hPa NNW 23.8 km/h 23.8 km/h 72 % 0 mm 0.0 W/m2 CLR
05:29 -15.3 °C -17.8 °C 33809.2 hPa North 23.8 km/h 23.8 km/h 73 % 0 mm 0.0 W/m2 CLR
05:34 -15.3 °C -17.8 °C 33822.8 hPa NNW 26.9 km/h 26.9 km/h 73 % 0 mm 0.0 W/m2 CLR
05:39 -15 °C -17.4 °C 33822.8 hPa NW 20.9 km/h 20.9 km/h 74 % 0 mm 0.0 W/m2 CLR
05:44 -14.7 °C -17.2 °C 33822.8 hPa NW 23.8 km/h 23.8 km/h 73 % 0 mm 0.0 W/m2 CLR
05:49 -14.4 °C -17 °C 33822.8 hPa NW 26.9 km/h 26.9 km/h 72 % 0 mm 0.0 W/m2 CLR
05:54 -13.8 °C -16.5 °C 33832.9 hPa NNW 23.8 km/h 23.8 km/h 71 % 0 mm 0.0 W/m2 CLR
05:59 -13.2 °C -15.8 °C 33843.1 hPa NNW 17.9 km/h 17.9 km/h 72 % 0 mm 0.0 W/m2 CLR
06:04 -13.2 °C -15.8 °C 33843.1 hPa NNW 18.2 km/h 18.2 km/h 72 % 0 mm 0.0 W/m2 CLR
06:09 -13.2 °C -15.7 °C 33843.1 hPa NNW 26.9 km/h 26.9 km/h 73 % 0 mm 0.0 W/m2 CLR
06:14 -13.4 °C -16 °C 33843.1 hPa NNW 32.8 km/h 32.8 km/h 73 % 0 mm 0.0 W/m2 CLR
06:19 -13.4 °C -16 °C 33856.6 hPa North 31.1 km/h 31.1 km/h 73 % 0 mm 0.0 W/m2 CLR
06:24 -13.2 °C -15.7 °C 33856.6 hPa NNW 38.8 km/h 38.8 km/h 73 % 0 mm 0.0 W/m2 CLR
06:29 -13.2 °C -15.6 °C 33856.6 hPa NNW 29.8 km/h 29.8 km/h 74 % 0 mm 0.0 W/m2 CLR
06:34 -12.8 °C -15.3 °C 33856.6 hPa North 23.8 km/h 23.8 km/h 74 % 0 mm 0.0 W/m2 CLR
06:39 -12.8 °C -15.3 °C 33856.6 hPa NNW 29.8 km/h 29.8 km/h 74 % 0 mm 0.0 W/m2 CLR
06:44 -12.8 °C -15.2 °C 33866.8 hPa NW 29.8 km/h 29.8 km/h 75 % 0 mm 0.0 W/m2 CLR
06:49 -12.8 °C -15.3 °C 33866.8 hPa NNW 29.8 km/h 29.8 km/h 74 % 0 mm 0.0 W/m2 CLR
06:54 -12.8 °C -15.4 °C 33866.8 hPa NW 29.8 km/h 29.8 km/h 73 % 0 mm 0.0 W/m2 CLR
06:59 -12.6 °C -15.1 °C 33866.8 hPa NW 29.8 km/h 29.8 km/h 73 % 0 mm 0.0 W/m2 CLR
07:04 -12.6 °C -15.1 °C 33866.8 hPa NW 35.7 km/h 35.7 km/h 73 % 0 mm 0.0 W/m2 CLR
07:09 -12.6 °C -15.3 °C 33880.3 hPa NW 38.8 km/h 38.8 km/h 71 % 0 mm 0.0 W/m2 CLR
07:14 -12.6 °C -15.4 °C 33880.3 hPa NW 53.6 km/h 53.6 km/h 70 % 0 mm 0.0 W/m2 CLR
07:19 -12.2 °C -15.1 °C 33866.8 hPa NW 38.8 km/h 38.8 km/h 70 % 0 mm 0.0 W/m2 CLR
07:24 -12.2 °C -15.1 °C 33880.3 hPa WNW 35.7 km/h 35.7 km/h 70 % 0 mm 0.0 W/m2 OVC
07:29 -12.2 °C -15.1 °C 33880.3 hPa NW 35.7 km/h 35.7 km/h 70 % 0 mm 0.0 W/m2 OVC
07:34 -12.2 °C -15.1 °C 33880.3 hPa NW 36.2 km/h 36.2 km/h 70 % 0 mm 0.0 W/m2 OVC
07:39 -12.2 °C -15.1 °C 33890.5 hPa NW 36.2 km/h 36.2 km/h 70 % 0 mm 5.0 W/m2 OVC
07:44 -12.2 °C -15.1 °C 33890.5 hPa NW 35.7 km/h 35.7 km/h 70 % 0 mm 9.0 W/m2 BKN
07:49 -12.6 °C -15.5 °C 33890.5 hPa WNW 44.1 km/h 44.1 km/h 69 % 0 mm 14.0 W/m2 BKN
07:54 -12.2 °C -15.2 °C 33900.6 hPa WNW 49.2 km/h 49.2 km/h 69 % 0 mm 16.0 W/m2 BKN
07:59 -12.2 °C -15.4 °C 33900.6 hPa WNW 41.7 km/h 41.7 km/h 68 % 0 mm 21.0 W/m2 BKN
08:04 -12.2 °C -15.4 °C 33900.6 hPa NW 29.8 km/h 29.8 km/h 68 % 0 mm 32.0 W/m2 BKN
08:09 -12.2 °C -15.2 °C 33914.2 hPa WNW 29.8 km/h 29.8 km/h 69 % 0 mm 32.0 W/m2 BKN
08:14 -12.2 °C -15.4 °C 33914.2 hPa NW 38.8 km/h 38.8 km/h 68 % 0 mm 25.0 W/m2 BKN
08:19 -12.2 °C -15.2 °C 33924.3 hPa NW 35.7 km/h 35.7 km/h 69 % 0 mm 30.0 W/m2 BKN
08:24 -12.6 °C -15.5 °C 33924.3 hPa NW 35.7 km/h 35.7 km/h 69 % 0 mm 70.0 W/m2 FEW
08:29 -12.2 °C -15.4 °C 33937.9 hPa NW 41.7 km/h 41.7 km/h 68 % 0 mm 100.0 W/m2 CLR
08:34 -11.9 °C -15.2 °C 33937.9 hPa NNW 35.7 km/h 35.7 km/h 67 % 0 mm 116.0 W/m2 CLR
08:44 -11.9 °C -15.3 °C 33948 hPa NW 32.8 km/h 32.8 km/h 66 % 0 mm 153.0 W/m2 CLR
08:49 -11.9 °C -15.4 °C 33948 hPa NNW 35.7 km/h 35.7 km/h 65 % 0 mm 156.0 W/m2 CLR
08:54 -11.6 °C -15 °C 33958.2 hPa North 47.6 km/h 47.6 km/h 66 % 0 mm 193.0 W/m2 CLR
08:59 -11.6 °C -15.1 °C 33958.2 hPa NW 54.4 km/h 54.4 km/h 65 % 0 mm 211.0 W/m2 CLR
09:04 -11.6 °C -15.1 °C 33958.2 hPa NW 50.7 km/h 50.7 km/h 65 % 0 mm 230.0 W/m2 CLR
09:09 -11.6 °C -15.1 °C 33971.7 hPa NW 44.1 km/h 44.1 km/h 65 % 0 mm 251.0 W/m2 CLR
09:14 -11.6 °C -15.2 °C 33971.7 hPa NNW 38.8 km/h 38.8 km/h 64 % 0 mm 267.0 W/m2 CLR
09:19 -11.3 °C -15.1 °C 33958.2 hPa NW 38.8 km/h 38.8 km/h 63 % 0 mm 281.0 W/m2 CLR
09:24 -11.3 °C -14.9 °C 33971.7 hPa WNW 29.8 km/h 29.8 km/h 64 % 0 mm 297.0 W/m2 CLR
09:29 -11.3 °C -14.9 °C 33971.7 hPa NW 44.7 km/h 44.7 km/h 64 % 0 mm 311.0 W/m2 CLR
09:34 -11.3 °C -15.1 °C 33971.7 hPa NW 47.6 km/h 47.6 km/h 63 % 0 mm 329.0 W/m2 CLR
09:39 -11.3 °C -15.1 °C 33971.7 hPa NW 41.7 km/h 41.7 km/h 63 % 0 mm 345.0 W/m2 CLR
09:44 -11.3 °C -15.1 °C 33971.7 hPa WNW 44.1 km/h 44.1 km/h 63 % 0 mm 359.0 W/m2 CLR
09:49 -11 °C -15.1 °C 33971.7 hPa WNW 41.7 km/h 41.7 km/h 61 % 0 mm 374.0 W/m2 CLR
09:54 -11 °C -15.1 °C 33971.7 hPa NW 44.7 km/h 44.7 km/h 61 % 0 mm 387.0 W/m2 CLR
09:59 -11 °C -15.1 °C 33971.7 hPa NW 38.8 km/h 38.8 km/h 61 % 0 mm 404.0 W/m2 CLR
10:04 -11 °C -15.1 °C 33971.7 hPa NW 41.7 km/h 41.7 km/h 61 % 0 mm 418.0 W/m2 CLR
10:10 -10.7 °C -14.8 °C 33981.9 hPa WNW 36.2 km/h 36.2 km/h 61 % 0 mm 431.0 W/m2 CLR
10:15 -10.7 °C -14.8 °C 33981.9 hPa NW 44.7 km/h 44.7 km/h 61 % 0 mm 446.0 W/m2 CLR
10:20 -10.7 °C -14.8 °C 33981.9 hPa NW 38.8 km/h 38.8 km/h 61 % 0 mm 459.0 W/m2 CLR
10:25 -10.7 °C -14.6 °C 33981.9 hPa NNW 29.8 km/h 29.8 km/h 62 % 0 mm 475.0 W/m2 CLR
10:30 -10.4 °C -14.3 °C 33981.9 hPa NW 32.8 km/h 32.8 km/h 62 % 0 mm 483.0 W/m2 CLR
10:35 -10.1 °C -13.9 °C 33981.9 hPa NW 38.8 km/h 38.8 km/h 63 % 0 mm 497.0 W/m2 CLR
10:40 -10.1 °C -14.1 °C 33992.1 hPa North 35.7 km/h 35.7 km/h 62 % 0 mm 520.0 W/m2 CLR
10:45 -10.1 °C -14.2 °C 33981.9 hPa NNW 47.6 km/h 47.6 km/h 61 % 0 mm 485.0 W/m2 CLR
10:50 -9.8 °C -13.9 °C 33981.9 hPa NNW 50.7 km/h 50.7 km/h 61 % 0 mm 531.0 W/m2 CLR
10:55 -9.8 °C -14 °C 33992.1 hPa WNW 53.6 km/h 53.6 km/h 60 % 0 mm 543.0 W/m2 CLR
11:00 -9.8 °C -14.4 °C 33992.1 hPa NW 71.5 km/h 71.5 km/h 57 % 0 mm 557.0 W/m2 CLR
11:05 -9.4 °C -14.3 °C 33992.1 hPa WNW 41.7 km/h 41.7 km/h 56 % 0 mm 570.0 W/m2 CLR
11:10 -9.4 °C -14.1 °C 33992.1 hPa NW 44.7 km/h 44.7 km/h 57 % 0 mm 584.0 W/m2 CLR
11:15 -9.4 °C -13.8 °C 33992.1 hPa NNW 47.6 km/h 47.6 km/h 59 % 0 mm 592.0 W/m2 CLR
11:20 -9.4 °C -13.8 °C 33981.9 hPa NNW 46.7 km/h 46.7 km/h 59 % 0 mm 613.0 W/m2 CLR
11:25 -9.1 °C -14.1 °C 33981.9 hPa WNW 50.7 km/h 50.7 km/h 55 % 0 mm 663.0 W/m2 CLR
11:30 -8.8 °C -14 °C 33981.9 hPa West 44.7 km/h 44.7 km/h 54 % 0 mm 738.0 W/m2 CLR
11:35 -9.1 °C -14.3 °C 33992.1 hPa WNW 50.7 km/h 50.7 km/h 54 % 0 mm 826.0 W/m2 CLR
11:40 -9.1 °C -14.6 °C 33992.1 hPa WNW 32.8 km/h 32.8 km/h 52 % 0 mm 722.0 W/m2 CLR
11:45 -8.8 °C -13.8 °C 33992.1 hPa NW 41.7 km/h 41.7 km/h 55 % 0 mm 311.0 W/m2 CLR
11:50 -9.1 °C -14 °C 34005.6 hPa NNW 41.7 km/h 41.7 km/h 56 % 0 mm 241.0 W/m2 CLR
11:55 -8.8 °C -13.6 °C 34005.6 hPa NNW 41.7 km/h 41.7 km/h 57 % 0 mm 745.0 W/m2 CLR
12:00 -8.8 °C -13.4 °C 34005.6 hPa North 35.7 km/h 35.7 km/h 58 % 0 mm 745.0 W/m2 CLR
12:05 -9.1 °C -14 °C 34005.6 hPa NNW 44.7 km/h 44.7 km/h 56 % 0 mm 229.0 W/m2 CLR
12:10 -9.1 °C -13.8 °C 34005.6 hPa NW 41.7 km/h 41.7 km/h 57 % 0 mm 821.0 W/m2 CLR
12:15 -9.1 °C -13.8 °C 34005.6 hPa NW 41.7 km/h 41.7 km/h 57 % 0 mm 812.0 W/m2 CLR
12:20 -9.1 °C -13.7 °C 34005.6 hPa North 25.9 km/h 25.9 km/h 58 % 0 mm 812.0 W/m2 CLR
12:25 -8.8 °C -13.6 °C 34005.6 hPa NNW 32.8 km/h 32.8 km/h 57 % 0 mm 798.0 W/m2 CLR
12:30 -8.8 °C -13.7 °C 34005.6 hPa NW 38.8 km/h 38.8 km/h 56 % 0 mm 798.0 W/m2 CLR
12:35 -8.5 °C -13.2 °C 34005.6 hPa NW 28.5 km/h 28.5 km/h 58 % 0 mm 842.0 W/m2 CLR
12:40 -8.5 °C -13.4 °C 34005.6 hPa North 44.7 km/h 44.7 km/h 56 % 0 mm 842.0 W/m2 CLR
12:45 -8.5 °C -13.4 °C 33992.1 hPa North 31.1 km/h 31.1 km/h 56 % 0 mm 773.0 W/m2 CLR
12:50 -8.2 °C -13.4 °C 33992.1 hPa NNW 29.8 km/h 29.8 km/h 54 % 0 mm 773.0 W/m2 CLR
12:55 -8.8 °C -14.2 °C 33992.1 hPa NNW 35.7 km/h 35.7 km/h 53 % 0 mm 250.0 W/m2 CLR
13:00 -9.1 °C -14.1 °C 33992.1 hPa NNW 41.4 km/h 41.4 km/h 55 % 0 mm 183.0 W/m2 CLR
13:05 -9.1 °C -14.1 °C 33981.9 hPa North 32.8 km/h 32.8 km/h 55 % 0 mm 107.0 W/m2 CLR
13:10 -9.4 °C -14.3 °C 33981.9 hPa NNE 23.8 km/h 23.8 km/h 56 % 0 mm 84.0 W/m2 CLR
13:15 -8.8 °C -13.7 °C 33981.9 hPa NW 23.8 km/h 23.8 km/h 56 % 0 mm 710.0 W/m2 CLR
13:20 -8.5 °C -13.7 °C 33981.9 hPa North 35.7 km/h 35.7 km/h 54 % 0 mm 715.0 W/m2 CLR
13:25 -8.2 °C -13.7 °C 33981.9 hPa North 50.7 km/h 50.7 km/h 52 % 0 mm 740.0 W/m2 CLR
13:31 -7.9 °C -13.4 °C 33971.7 hPa North 35.7 km/h 35.7 km/h 52 % 0 mm 666.0 W/m2 CLR
13:36 -8.2 °C -13.9 °C 33981.9 hPa NW 38.8 km/h 38.8 km/h 51 % 0 mm 731.0 W/m2 CLR
13:41 -7.9 °C -13.6 °C 33971.7 hPa NW 38.8 km/h 38.8 km/h 51 % 0 mm 722.0 W/m2 CLR
13:46 -7.9 °C -13.4 °C 33971.7 hPa North 41.4 km/h 41.4 km/h 52 % 0 mm 763.0 W/m2 CLR
13:51 -7.9 °C -13.8 °C 33971.7 hPa NNW 47.6 km/h 47.6 km/h 50 % 0 mm 729.0 W/m2 CLR
13:56 -7.6 °C -13.5 °C 33958.2 hPa North 29.8 km/h 29.8 km/h 50 % 0 mm 724.0 W/m2 CLR
14:01 -7.9 °C -13.9 °C 33958.2 hPa NNE 59.5 km/h 59.5 km/h 49 % 0 mm 823.0 W/m2 CLR
14:06 -7.9 °C -13.6 °C 33958.2 hPa North 38.8 km/h 38.8 km/h 51 % 0 mm 773.0 W/m2 CLR
14:11 -7.9 °C -13.8 °C 33958.2 hPa NNW 50.7 km/h 50.7 km/h 50 % 0 mm 693.0 W/m2 CLR
14:16 -7.9 °C -13.6 °C 33958.2 hPa North 47.6 km/h 47.6 km/h 51 % 0 mm 689.0 W/m2 CLR
14:21 -7.6 °C -13.7 °C 33958.2 hPa NNW 53.6 km/h 53.6 km/h 49 % 0 mm 708.0 W/m2 CLR
14:26 -7.6 °C -13.7 °C 33948 hPa North 49.2 km/h 49.2 km/h 49 % 0 mm 708.0 W/m2 CLR
14:31 -7.9 °C -14.3 °C 33958.2 hPa North 68.6 km/h 68.6 km/h 47 % 0 mm 700.0 W/m2 CLR
14:36 -7.6 °C -13.8 °C 33948 hPa North 51.8 km/h 51.8 km/h 48 % 0 mm 719.0 W/m2 CLR
14:41 -7.6 °C -14 °C 33948 hPa North 44.7 km/h 44.7 km/h 47 % 0 mm 737.0 W/m2 CLR
14:46 -7.6 °C -14.6 °C 33948 hPa North 59.5 km/h 59.5 km/h 44 % 0 mm 439.0 W/m2 CLR
14:51 -7.6 °C -14.7 °C 33948 hPa NW 47.6 km/h 47.6 km/h 43 % 0 mm 679.0 W/m2 CLR
14:56 -7.6 °C -14.6 °C 33937.9 hPa NNW 50.7 km/h 50.7 km/h 44 % 0 mm 642.0 W/m2 CLR
15:01 -7.6 °C -14.7 °C 33937.9 hPa NW 41.7 km/h 41.7 km/h 43 % 0 mm 554.0 W/m2 CLR
15:06 -7.6 °C -14.7 °C 33937.9 hPa NW 32.8 km/h 32.8 km/h 43 % 0 mm 619.0 W/m2 CLR
15:11 -7.6 °C -14.6 °C 33948 hPa North 50.7 km/h 50.7 km/h 44 % 0 mm 378.0 W/m2 CLR
15:16 -7.9 °C -14.8 °C 33948 hPa North 50.7 km/h 50.7 km/h 44 % 0 mm 473.0 W/m2 CLR
15:21 -7.9 °C -14.8 °C 33948 hPa North 32.8 km/h 32.8 km/h 44 % 0 mm 385.0 W/m2 CLR
15:26 -7.9 °C -14.8 °C 33948 hPa North 32.8 km/h 32.8 km/h 44 % 0 mm 380.0 W/m2 CLR
15:31 -7.9 °C -15 °C 33948 hPa North 41.7 km/h 41.7 km/h 43 % 0 mm 269.0 W/m2 CLR
15:36 -7.9 °C -15.2 °C 33948 hPa NNW 41.7 km/h 41.7 km/h 42 % 0 mm 323.0 W/m2 CLR
15:41 -7.9 °C -15.2 °C 33948 hPa NNW 38.8 km/h 38.8 km/h 42 % 0 mm 267.0 W/m2 CLR
15:46 -7.9 °C -15.2 °C 33948 hPa NNW 6 km/h 6 km/h 42 % 0 mm 388.0 W/m2 CLR
15:51 -7.9 °C -15.2 °C 33948 hPa NNW 35.7 km/h 35.7 km/h 42 % 0 mm 264.0 W/m2 CLR
15:56 -7.9 °C -15.6 °C 33937.9 hPa NNW 23.8 km/h 23.8 km/h 40 % 0 mm 258.0 W/m2 CLR
16:01 -8.2 °C -15.7 °C 33937.9 hPa Calm     41 % 0 mm 255.0 W/m2 CLR
16:06 -8.2 °C -15.3 °C 33937.9 hPa NW 17.9 km/h 17.9 km/h 43 % 0 mm 257.0 W/m2 CLR
16:11 -8.2 °C -15.4 °C 33937.9 hPa North 23.8 km/h 23.8 km/h 42 % 0 mm 265.0 W/m2 CLR
16:16 -7.9 °C -15.4 °C 33937.9 hPa NNW 20.9 km/h 20.9 km/h 41 % 0 mm 288.0 W/m2 CLR
16:21 -7.9 °C -15 °C 33937.9 hPa North 20.9 km/h 20.9 km/h 43 % 0 mm 315.0 W/m2 CLR
16:26 -7.9 °C -14.8 °C 33937.9 hPa NNW 23.8 km/h 23.8 km/h 44 % 0 mm 218.0 W/m2 CLR
16:31 -7.9 °C -15 °C 33937.9 hPa NNW 29.8 km/h 29.8 km/h 43 % 0 mm 258.0 W/m2 CLR
16:36 -8.2 °C -15.3 °C 33937.9 hPa NNW 26.9 km/h 26.9 km/h 43 % 0 mm 241.0 W/m2 CLR
16:41 -8.2 °C -15.3 °C 33937.9 hPa Calm     43 % 0 mm 179.0 W/m2 CLR
16:46 -8.2 °C -15.3 °C 33937.9 hPa NNW 17.9 km/h 17.9 km/h 43 % 0 mm 179.0 W/m2 CLR
16:51 -8.2 °C -15.1 °C 33937.9 hPa NE 23.8 km/h 23.8 km/h 44 % 0 mm 181.0 W/m2 CLR
16:56 -8.5 °C -15.2 °C 33937.9 hPa ENE 15 km/h 15 km/h 45 % 0 mm 149.0 W/m2 CLR
17:01 -8.5 °C -15.2 °C 33948 hPa ENE 9 km/h 9 km/h 45 % 0 mm 111.0 W/m2 CLR
17:06 -8.8 °C -15.7 °C 33948 hPa Calm     44 % 0 mm 77.0 W/m2 CLR
17:11 -8.8 °C -15.7 °C 33937.9 hPa Calm     44 % 0 mm 65.0 W/m2 FEW
17:16 -8.8 °C -15.4 °C 33937.9 hPa Calm     45 % 0 mm 69.0 W/m2 FEW
17:21 -8.8 °C -15.4 °C 33937.9 hPa Calm     45 % 0 mm 67.0 W/m2 FEW
17:26 -8.8 °C -15.3 °C 33924.3 hPa Calm     46 % 0 mm 83.0 W/m2 FEW
17:31 -8.8 °C -15.3 °C 33924.3 hPa Calm     46 % 0 mm 90.0 W/m2 FEW
17:36 -8.8 °C -15.1 °C 33924.3 hPa Calm     47 % 0 mm 84.0 W/m2 CLR
17:41 -8.8 °C -15.1 °C 33937.9 hPa Calm     47 % 0 mm 69.0 W/m2 FEW
17:46 -9.1 °C -15.2 °C 33937.9 hPa Calm     48 % 0 mm 53.0 W/m2 FEW
17:51 -9.1 °C -15.4 °C 33924.3 hPa Calm     47 % 0 mm 53.0 W/m2 SCT
17:56 -9.1 °C -15.4 °C 33924.3 hPa Calm     47 % 0 mm 54.0 W/m2 SCT
18:01 -9.1 °C -15.2 °C 33937.9 hPa Calm     48 % 0 mm 51.0 W/m2 SCT
18:06 -9.4 °C -15.5 °C 33937.9 hPa Calm     48 % 0 mm 35.0 W/m2 BKN
18:11 -9.4 °C -15.5 °C 33937.9 hPa Calm     48 % 0 mm 26.0 W/m2 BKN
18:16 -9.8 °C -15.7 °C 33937.9 hPa Calm     49 % 0 mm 25.0 W/m2 BKN
18:22 -9.8 °C -15.7 °C 33937.9 hPa Calm     49 % 0 mm 26.0 W/m2 BKN
18:27 -9.8 °C -15.4 °C 33937.9 hPa Calm     50 % 0 mm 25.0 W/m2 BKN
18:32 -10.1 °C -15.8 °C 33937.9 hPa Calm     50 % 0 mm 19.0 W/m2 BKN
18:37 -10.1 °C -15.6 °C 33948 hPa Calm     51 % 0 mm 14.0 W/m2 BKN
18:42 -10.4 °C -15.7 °C 33937.9 hPa Calm     52 % 0 mm 7.0 W/m2 BKN
18:47 -10.4 °C -15.9 °C 33937.9 hPa South 11.9 km/h 11.9 km/h 51 % 0 mm 0.0 W/m2 OVC
18:52 -10.4 °C -15.7 °C 33937.9 hPa South 6 km/h 6 km/h 52 % 0 mm 0.0 W/m2 OVC
18:57 -10.4 °C -15.7 °C 33937.9 hPa South 6 km/h 6 km/h 52 % 0 mm 0.0 W/m2 OVC
19:02 -10.4 °C -15.7 °C 33937.9 hPa South 6 km/h 6 km/h 52 % 0 mm 0.0 W/m2 CLR
19:07 -10.7 °C -16 °C 33948 hPa SSW 10.3 km/h 10.3 km/h 52 % 0 mm 0.0 W/m2 CLR
19:12 -11 °C -16.3 °C 33948 hPa SSW 3.1 km/h   52 % 0 mm 0.0 W/m2 CLR
19:17 -11.3 °C -16.6 °C 33948 hPa SSW 9 km/h 9 km/h 52 % 0 mm 0.0 W/m2 CLR
19:22 -11.3 °C -16.4 °C 33948 hPa South 10.3 km/h 10.3 km/h 53 % 0 mm 0.0 W/m2 CLR
19:27 -11.3 °C -16.6 °C 33948 hPa South 9 km/h 9 km/h 52 % 0 mm 0.0 W/m2 CLR
19:32 -11.3 °C -16.4 °C 33948 hPa South 17.9 km/h 17.9 km/h 53 % 0 mm 0.0 W/m2 CLR
19:37 -11.3 °C -16.6 °C 33948 hPa South 9 km/h 9 km/h 52 % 0 mm 0.0 W/m2 CLR
19:42 -11.3 °C -16.4 °C 33948 hPa South 9 km/h 9 km/h 53 % 0 mm 0.0 W/m2 CLR
19:47 -11.3 °C -16.4 °C 33948 hPa South 9 km/h 9 km/h 53 % 0 mm 0.0 W/m2 CLR
19:52 -11.6 °C -16.6 °C 33948 hPa South 9 km/h 9 km/h 54 % 0 mm 0.0 W/m2 CLR
19:57 -11.6 °C -16.6 °C 33948 hPa South 6 km/h 6 km/h 54 % 0 mm 0.0 W/m2 CLR
20:02 -11.9 °C -16.9 °C 33948 hPa Calm     54 % 0 mm 0.0 W/m2 CLR
20:07 -12.2 °C -16.9 °C 33937.9 hPa Calm     56 % 0 mm 0.0 W/m2 CLR
20:12 -12.6 °C -17.1 °C 33937.9 hPa Calm     57 % 0 mm 0.0 W/m2 CLR
20:17 -12.6 °C -16.9 °C 33937.9 hPa Calm     58 % 0 mm 0.0 W/m2 CLR
20:22 -12.8 °C -17.3 °C 33924.3 hPa Calm     57 % 0 mm 0.0 W/m2 CLR
20:27 -12.8 °C -17.1 °C 33924.3 hPa Calm     59 % 0 mm 0.0 W/m2 CLR
20:32 -13.2 °C -17.1 °C 33937.9 hPa Calm     61 % 0 mm 0.0 W/m2 CLR
20:37 -13.2 °C -17.1 °C 33924.3 hPa Calm     61 % 0 mm 0.0 W/m2 CLR
20:42 -13.2 °C -17.2 °C 33924.3 hPa Calm     60 % 0 mm 0.0 W/m2 CLR
20:47 -13.4 °C -17.5 °C 33924.3 hPa Calm     60 % 0 mm 0.0 W/m2 CLR
20:52 -13.4 °C -17.4 °C 33924.3 hPa Calm     61 % 0 mm 0.0 W/m2 CLR
20:57 -13.4 °C -17.4 °C 33924.3 hPa Calm     61 % 0 mm 0.0 W/m2 CLR
21:02 -13.4 °C -17.3 °C 33924.3 hPa Calm     62 % 0 mm 0.0 W/m2 CLR
21:07 -13.4 °C -17.1 °C 33924.3 hPa Calm     63 % 0 mm 0.0 W/m2 CLR
21:12 -13.4 °C -17 °C 33924.3 hPa Calm     64 % 0 mm 0.0 W/m2 CLR
21:17 -13.4 °C -16.9 °C 33937.9 hPa Calm     65 % 0 mm 0.0 W/m2 CLR
21:22 -13.4 °C -16.8 °C 33924.3 hPa Calm     66 % 0 mm 0.0 W/m2 CLR
21:27 -13.8 °C -16.9 °C 33937.9 hPa Calm     67 % 0 mm 0.0 W/m2 CLR
21:32 -13.8 °C -16.8 °C 33937.9 hPa Calm     68 % 0 mm 0.0 W/m2 CLR
21:37 -13.8 °C -16.8 °C 33937.9 hPa Calm     68 % 0 mm 0.0 W/m2 CLR
21:42 -13.8 °C -16.9 °C 33937.9 hPa Calm     67 % 0 mm 0.0 W/m2 CLR
21:48 -13.8 °C -16.8 °C 33937.9 hPa Calm     68 % 0 mm 0.0 W/m2 CLR
21:53 -13.8 °C -16.8 °C 33937.9 hPa Calm     68 % 0 mm 0.0 W/m2 CLR
21:58 -13.8 °C -16.9 °C 33937.9 hPa Calm     67 % 0 mm 0.0 W/m2 CLR
22:03 -13.8 °C -16.8 °C 33937.9 hPa Calm     68 % 0 mm 0.0 W/m2 CLR
22:08 -13.8 °C -16.7 °C 33937.9 hPa Calm     69 % 0 mm 0.0 W/m2 CLR
22:13 -13.8 °C -16.8 °C 33924.3 hPa Calm     68 % 0 mm 0.0 W/m2 CLR
22:18 -13.8 °C -16.9 °C 33924.3 hPa Calm     67 % 0 mm 0.0 W/m2 CLR
22:23 -13.8 °C -16.7 °C 33924.3 hPa Calm     69 % 0 mm 0.0 W/m2 CLR
22:28 -13.8 °C -16.6 °C 33924.3 hPa Calm     70 % 0 mm 0.0 W/m2 CLR
22:33 -13.8 °C -16.5 °C 33924.3 hPa Calm     71 % 0 mm 0.0 W/m2 CLR
22:38 -13.8 °C -16.6 °C 33914.2 hPa Calm     70 % 0 mm 0.0 W/m2 CLR
22:43 -13.8 °C -16.4 °C 33914.2 hPa Calm     72 % 0 mm 0.0 W/m2 CLR
22:48 -13.8 °C -16.4 °C 33914.2 hPa Calm     72 % 0 mm 0.0 W/m2 CLR
22:53 -13.8 °C -16.3 °C 33914.2 hPa Calm     73 % 0 mm 0.0 W/m2 CLR
22:58 -13.8 °C -16.1 °C 33900.6 hPa Calm     75 % 0 mm 0.0 W/m2 CLR
23:03 -13.8 °C -15.9 °C 33900.6 hPa Calm     76 % 0 mm 0.0 W/m2 CLR
23:08 -13.8 °C -15.9 °C 33900.6 hPa Calm     76 % 0 mm 0.0 W/m2 CLR
23:13 -13.8 °C -15.9 °C 33900.6 hPa Calm     76 % 0 mm 0.0 W/m2 CLR
23:18 -13.8 °C -15.9 °C 33900.6 hPa Calm     76 % 0 mm 0.0 W/m2 CLR
23:23 -13.8 °C -15.9 °C 33900.6 hPa Calm     77 % 0 mm 0.0 W/m2 CLR
23:28 -13.8 °C -15.9 °C 33900.6 hPa Calm     77 % 0 mm 0.0 W/m2 CLR
23:33 -14.1 °C -16.1 °C 33900.6 hPa Calm     78 % 0 mm 0.0 W/m2 CLR
23:38 -13.8 °C -15.7 °C 33900.6 hPa Calm     78 % 0 mm 0.0 W/m2 CLR
23:43 -13.8 °C -15.9 °C 33900.6 hPa Calm     77 % 0 mm 0.0 W/m2 CLR
23:48 -13.8 °C -15.9 °C 33900.6 hPa Calm     77 % 0 mm 0.0 W/m2 CLR
23:53 -13.4 °C -15.6 °C 33900.6 hPa Calm     77 % 0 mm 0.0 W/m2 CLR
23:58 -13.8 °C -15.9 °C 33900.6 hPa Calm     77 % 0 mm 0.0 W/m2 CLR
Lo Temps de Massalio
Compliments of Weather Underground - 1.25 mb